Time;durP1;ratioP1;P1;durP2;ratioP2;P2;SDS_P1;SDS_P2;PMS_P1;PMS_P2;Temp;Humidity;BMP_temperature;BMP_pressure;BME280_temperature;BME280_humidity;BME280_pressure;Samples;Min_cycle;Max_cycle;Signal;HPM_P1;HPM_P2
2022/06/21 00:01:52;;;;;;;4.60;1.98;;;;;;;24.39;40.35;98558.55;1656405;86;21325;-69
2022/06/21 00:04:19;;;;;;;3.95;2.90;;;;;;;24.33;40.43;98551.77;1657426;86;20995;-69
2022/06/21 00:06:45;;;;;;;3.58;2.25;;;;;;;24.30;40.49;98550.57;1659378;86;20960;-71
2022/06/21 00:09:13;;;;;;;1.85;1.75;;;;;;;24.33;40.35;98548.45;1651410;86;21130;-71
2022/06/21 00:11:40;;;;;;;2.52;1.98;;;;;;;24.36;40.24;98546.94;1659913;86;21000;-72
2022/06/21 00:14:07;;;;;;;2.25;2.05;;;;;;;24.32;40.30;98547.43;1642316;87;21007;-73
2022/06/21 00:16:35;;;;;;;3.45;3.15;;;;;;;24.27;40.05;98540.88;1666497;85;21587;-72
2022/06/21 00:19:04;;;;;;;2.72;2.02;;;;;;;24.22;40.44;98541.98;1647391;86;21120;-72
2022/06/21 00:21:37;;;;;;;4.12;2.25;;;;;;;24.22;40.34;98548.08;1640989;87;20968;-70
2022/06/21 00:24:06;;;;;;;2.65;2.45;;;;;;;24.22;40.26;98537.09;1641161;87;21189;-71
2022/06/21 00:26:32;;;;;;;6.33;2.92;;;;;;;24.16;40.43;98537.98;1618637;87;20991;-70
2022/06/21 00:29:00;;;;;;;2.02;1.82;;;;;;;24.10;40.50;98542.73;1640935;85;21040;-71
2022/06/21 00:31:32;;;;;;;3.10;2.08;;;;;;;24.10;40.40;98535.28;1642949;87;21556;-70
2022/06/21 00:34:16;;;;;;;4.50;2.52;;;;;;;24.14;40.42;98533.96;1617443;87;21073;-70
2022/06/21 00:36:44;;;;;;;2.00;1.90;;;;;;;24.18;40.16;98535.64;1644870;86;21167;-71
2022/06/21 00:39:13;;;;;;;5.10;2.10;;;;;;;24.23;40.09;98531.20;1617521;86;21024;-72
2022/06/21 00:41:57;;;;;;;6.50;2.22;;;;;;;24.26;39.93;98534.61;1663578;86;21050;-70
2022/06/21 00:44:35;;;;;;;2.10;1.92;;;;;;;24.30;39.63;98521.72;1640782;87;21103;-71
2022/06/21 00:47:28;;;;;;;2.22;2.00;;;;;;;24.35;39.48;98523.36;1665234;84;20916;-70
2022/06/21 00:50:18;;;;;;;4.87;2.22;;;;;;;24.39;39.30;98521.45;1662695;84;21179;-72
2022/06/21 00:53:07;;;;;;;5.15;1.80;;;;;;;24.43;39.10;98518.17;1609477;88;21057;-70
2022/06/21 00:55:42;;;;;;;2.87;2.08;;;;;;;24.48;38.83;98514.30;1618276;86;21599;-73
2022/06/21 00:58:14;;;;;;;3.22;1.90;;;;;;;24.51;38.87;98514.95;1641577;86;21105;-72
2022/06/21 01:01:15;;;;;;;2.62;2.42;;;;;;;24.51;38.80;98510.84;1620661;86;21598;-69
2022/06/21 01:04:03;;;;;;;2.45;2.25;;;;;;;24.52;38.67;98510.45;1639932;87;21576;-70
2022/06/21 01:06:36;;;;;;;4.20;2.10;;;;;;;24.54;38.52;98501.26;1617668;87;21055;-71
2022/06/21 01:09:11;;;;;;;2.55;1.82;;;;;;;24.55;38.22;98498.73;1640366;86;22266;-75
2022/06/21 01:11:42;;;;;;;4.03;2.20;;;;;;;24.56;38.12;98493.41;1637446;86;21022;-72
2022/06/21 01:14:09;;;;;;;3.30;2.22;;;;;;;24.57;38.14;98492.26;1642374;87;21051;-71
2022/06/21 01:16:37;;;;;;;5.25;1.62;;;;;;;24.58;38.06;98491.67;1640858;87;21623;-70
2022/06/21 01:19:10;;;;;;;4.05;2.22;;;;;;;24.57;38.01;98490.88;1613313;86;20928;-70
2022/06/21 01:21:37;;;;;;;3.98;2.35;;;;;;;24.57;37.85;98483.22;1611341;87;21003;-71
2022/06/21 01:24:21;;;;;;;3.27;1.95;;;;;;;24.57;37.78;98488.71;1618904;88;21558;-72
2022/06/21 01:26:55;;;;;;;2.50;2.30;;;;;;;24.57;37.72;98484.01;1644493;86;21117;-70
2022/06/21 01:29:28;;;;;;;3.70;1.95;;;;;;;24.57;37.74;98473.01;1644599;86;21038;-72
2022/06/21 01:31:56;;;;;;;2.02;1.92;;;;;;;24.56;37.62;98463.75;1593141;88;21518;-70
2022/06/21 01:34:25;;;;;;;3.33;1.90;;;;;;;24.55;37.59;98467.11;1640435;87;21324;-70
2022/06/21 01:36:56;;;;;;;1.90;1.77;;;;;;;24.53;37.55;98468.05;1661139;86;21031;-72
2022/06/21 01:39:34;;;;;;;4.30;2.30;;;;;;;24.51;37.49;98468.23;1648434;84;21015;-71
2022/06/21 01:42:11;;;;;;;5.67;2.08;;;;;;;24.51;37.58;98465.48;1619256;87;21199;-71
2022/06/21 01:44:42;;;;;;;6.05;1.90;;;;;;;24.49;37.56;98464.46;1623099;87;21086;-71
2022/06/21 01:47:13;;;;;;;6.70;1.90;;;;;;;24.48;37.54;98453.83;1634254;86;21594;-71
2022/06/21 01:49:45;;;;;;;4.30;2.20;;;;;;;24.45;37.67;98453.21;1644509;86;21046;-69
2022/06/21 01:52:19;;;;;;;2.42;1.92;;;;;;;24.43;37.69;98446.70;1629334;87;21521;-69
2022/06/21 01:54:52;;;;;;;3.05;2.05;;;;;;;24.41;37.74;98446.87;1628921;88;21250;-70
2022/06/21 01:57:18;;;;;;;4.80;2.00;;;;;;;24.37;37.70;98441.30;1629426;86;21540;-70
2022/06/21 01:59:47;;;;;;;2.20;2.00;;;;;;;24.35;37.88;98448.35;1689652;84;21063;-70
2022/06/21 02:02:22;;;;;;;3.15;2.35;;;;;;;24.33;37.97;98448.72;1669289;84;21007;-70
2022/06/21 02:05:00;;;;;;;2.85;2.00;;;;;;;24.30;37.96;98446.72;1636994;87;21102;-68
2022/06/21 02:07:31;;;;;;;2.27;1.82;;;;;;;24.28;37.98;98442.95;1661445;86;21774;-69
2022/06/21 02:10:24;;;;;;;3.90;2.45;;;;;;;24.27;38.03;98443.31;1632141;86;21071;-70
2022/06/21 02:12:56;;;;;;;1.92;1.80;;;;;;;24.24;38.22;98442.70;1639700;87;20975;-69
2022/06/21 02:15:40;;;;;;;4.55;1.75;;;;;;;24.21;38.27;98438.75;1640444;87;21039;-72
2022/06/21 02:18:13;;;;;;;1.98;1.85;;;;;;;24.19;38.32;98438.89;1659180;86;21082;-70
2022/06/21 02:21:07;;;;;;;1.77;1.67;;;;;;;24.13;38.54;98439.75;1650392;86;22088;-71
2022/06/21 02:23:34;;;;;;;4.95;2.72;;;;;;;24.08;38.77;98432.41;1639736;87;21061;-70
2022/06/21 02:26:01;;;;;;;2.70;2.50;;;;;;;24.02;39.06;98431.95;1643088;86;21011;-69
2022/06/21 02:28:28;;;;;;;3.25;2.47;;;;;;;23.96;39.35;98427.93;1667046;84;21017;-72
2022/06/21 02:30:55;;;;;;;2.05;1.85;;;;;;;23.87;39.53;98424.66;1639948;86;21046;-69
2022/06/21 02:33:27;;;;;;;3.95;2.50;;;;;;;23.81;39.83;98423.37;1642707;87;21258;-69
2022/06/21 02:36:04;;;;;;;8.18;2.98;;;;;;;23.72;39.90;98413.22;1642707;87;21079;-70
2022/06/21 02:38:35;;;;;;;6.50;2.50;;;;;;;23.65;39.90;98415.84;1643473;86;21062;-71
2022/06/21 02:41:11;;;;;;;6.22;2.60;;;;;;;23.59;40.14;98406.34;1664082;86;21058;-69
2022/06/21 02:44:08;;;;;;;2.12;2.00;;;;;;;23.53;40.24;98406.44;1657272;86;21040;-70
2022/06/21 02:46:38;;;;;;;2.60;1.92;;;;;;;23.46;40.51;98406.52;1657501;86;21229;-70
2022/06/21 02:49:21;;;;;;;3.47;2.72;;;;;;;23.38;40.65;98406.16;1665121;86;20979;-70
2022/06/21 02:51:53;;;;;;;1.70;1.60;;;;;;;23.32;40.89;98392.52;1634623;86;21075;-71
2022/06/21 02:54:24;;;;;;;5.90;2.33;;;;;;;23.25;41.17;98391.62;1639306;86;22207;-70
2022/06/21 02:57:06;;;;;;;2.83;2.45;;;;;;;23.19;41.27;98388.95;1619981;88;21100;-70
2022/06/21 02:59:35;;;;;;;3.83;2.67;;;;;;;23.13;41.40;98384.92;1644898;86;21090;-69
2022/06/21 03:02:10;;;;;;;2.37;2.17;;;;;;;23.08;41.49;98395.61;1643395;87;20980;-70
2022/06/21 03:04:47;;;;;;;3.22;2.22;;;;;;;23.07;41.72;98387.77;1654216;86;21499;-69
2022/06/21 03:07:27;;;;;;;3.58;2.15;;;;;;;23.03;41.79;98382.20;1620139;87;20998;-70
2022/06/21 03:09:54;;;;;;;3.77;2.52;;;;;;;23.00;42.12;98378.81;1648537;86;21050;-71
2022/06/21 03:12:25;;;;;;;3.80;2.60;;;;;;;22.94;42.24;98367.34;1646673;86;21151;-70
2022/06/21 03:14:57;;;;;;;6.25;3.02;;;;;;;22.92;42.49;98367.52;1666497;86;22272;-70
2022/06/21 03:17:29;;;;;;;2.67;2.37;;;;;;;22.86;42.60;98364.27;1647613;87;21058;-69
2022/06/21 03:19:55;;;;;;;6.00;2.22;;;;;;;22.81;43.02;98362.40;1664007;86;21001;-69
2022/06/21 03:22:25;;;;;;;3.05;2.70;;;;;;;22.77;43.19;98370.56;1657342;86;21070;-70
2022/06/21 03:24:54;;;;;;;5.35;3.22;;;;;;;22.73;43.34;98364.22;1657491;86;21072;-70
2022/06/21 03:27:50;;;;;;;3.35;2.40;;;;;;;22.71;43.44;98366.52;1656200;86;21120;-70
2022/06/21 03:30:19;;;;;;;3.10;2.65;;;;;;;22.70;43.62;98366.84;1647691;86;21533;-69
2022/06/21 03:32:46;;;;;;;4.75;2.98;;;;;;;22.70;43.70;98363.55;1664179;86;21585;-70
2022/06/21 03:35:14;;;;;;;2.55;2.35;;;;;;;22.71;43.79;98371.20;1667413;86;21012;-71
2022/06/21 03:37:41;;;;;;;3.65;2.92;;;;;;;22.71;43.76;98368.47;1619421;86;21899;-71
2022/06/21 03:42:56;;;;;;;3.17;2.33;;;;;;;22.72;43.92;98360.46;1661778;86;20916;-69
2022/06/21 03:45:34;;;;;;;3.72;2.95;;;;;;;22.73;43.90;98351.89;1649710;86;21173;-70
2022/06/21 03:48:27;;;;;;;2.92;2.72;;;;;;;22.75;43.92;98350.13;1651472;86;21011;-69
2022/06/21 03:51:06;;;;;;;;;;;;;;;22.76;44.01;98353.89;1638157;86;22130;-70
2022/06/21 03:53:36;;;;;;;3.35;2.47;;;;;;;22.78;44.06;98350.80;1643721;87;20147;-75
2022/06/21 03:56:10;;;;;;;6.80;3.47;;;;;;;22.79;44.23;98351.78;1639953;87;21051;-74
2022/06/21 03:59:01;;;;;;;7.20;3.15;;;;;;;22.84;44.14;98347.95;1641599;86;21515;-73
2022/06/21 04:01:42;;;;;;;4.65;2.98;;;;;;;22.87;44.24;98345.88;1634966;86;21076;-70
2022/06/21 04:04:26;;;;;;;5.50;2.42;;;;;;;22.88;44.18;98342.75;1656977;86;21109;-71
2022/06/21 04:06:58;;;;;;;3.83;2.72;;;;;;;22.90;44.15;98340.45;1642552;87;21045;-72
2022/06/21 04:09:36;;;;;;;2.98;2.70;;;;;;;22.94;44.19;98345.41;1644950;86;21082;-72
2022/06/21 04:12:30;;;;;;;9.55;2.60;;;;;;;22.99;44.28;98345.69;1636944;86;21058;-70
2022/06/21 04:15:13;;;;;;;5.08;2.67;;;;;;;23.02;44.27;98338.13;1629234;86;21551;-70
2022/06/21 04:17:58;;;;;;;6.33;5.00;;;;;;;23.07;44.25;98343.88;1648138;86;20983;-70
2022/06/21 04:20:34;;;;;;;3.22;2.50;;;;;;;23.12;44.09;98341.61;1611106;86;21472;-69
2022/06/21 04:23:35;;;;;;;6.22;3.10;;;;;;;23.19;44.15;98346.44;1641196;87;21035;-69
2022/06/21 04:26:19;;;;;;;5.83;2.60;;;;;;;23.24;44.15;98338.70;1611787;87;22201;-68
2022/06/21 04:28:51;;;;;;;4.65;3.33;;;;;;;23.30;44.18;98329.59;1615812;87;21543;-69
2022/06/21 04:31:39;;;;;;;8.28;3.20;;;;;;;23.33;44.20;98326.89;1622201;86;21097;-69
2022/06/21 04:34:22;;;;;;;4.50;3.05;;;;;;;23.39;44.32;98322.69;1616693;87;20983;-70
2022/06/21 04:36:57;;;;;;;16.65;14.85;;;;;;;23.45;44.18;98312.23;1640717;86;21026;-69
2022/06/21 04:39:30;;;;;;;5.40;4.50;;;;;;;23.51;44.19;98317.59;1631624;87;21023;-70
2022/06/21 04:42:13;;;;;;;4.92;3.92;;;;;;;23.58;44.16;98314.17;1640880;86;20995;-70
2022/06/21 04:44:48;;;;;;;13.45;3.90;;;;;;;23.63;44.25;98307.00;1641134;87;21300;-70
2022/06/21 04:47:26;;;;;;;3.42;2.98;;;;;;;23.69;44.11;98313.16;1640724;87;21074;-70
2022/06/21 04:50:00;;;;;;;9.98;3.45;;;;;;;23.77;44.28;98317.61;1640736;87;21030;-72
2022/06/21 04:52:39;;;;;;;2.95;2.75;;;;;;;23.81;44.20;98318.45;1660625;86;21044;-72
2022/06/21 04:55:07;;;;;;;6.17;3.52;;;;;;;23.90;44.07;98303.06;1640509;87;21583;-71
2022/06/21 04:57:34;;;;;;;4.40;3.00;;;;;;;23.96;44.05;98298.84;1612861;87;21176;-72
2022/06/21 05:00:06;;;;;;;7.03;3.20;;;;;;;24.03;43.97;98303.04;1612195;86;21011;-71
2022/06/21 05:03:00;;;;;;;8.13;3.00;;;;;;;24.09;43.89;98302.94;1638023;86;21051;-71
2022/06/21 05:05:36;;;;;;;3.52;3.00;;;;;;;24.16;43.83;98307.19;1625958;87;21027;-70
2022/06/21 05:08:11;;;;;;;2.87;2.67;;;;;;;24.25;43.76;98300.03;1638632;87;22199;-69
2022/06/21 05:10:43;;;;;;;4.00;2.60;;;;;;;24.30;43.53;98295.00;1632890;86;21799;-70
2022/06/21 05:13:30;;;;;;;3.15;2.62;;;;;;;24.38;43.41;98287.62;1637639;87;21114;-72
2022/06/21 05:16:00;;;;;;;6.75;3.25;;;;;;;24.45;43.33;98290.45;1642536;86;21050;-69
2022/06/21 05:18:38;;;;;;;9.58;3.90;;;;;;;24.54;43.31;98295.66;1640014;87;21063;-70
2022/06/21 05:21:17;;;;;;;4.65;3.20;;;;;;;24.61;43.14;98286.09;1629088;86;21090;-70
2022/06/21 05:23:44;;;;;;;7.42;3.08;;;;;;;24.68;42.87;98282.85;1628906;88;21254;-71
2022/06/21 05:26:19;;;;;;;3.27;2.42;;;;;;;24.76;42.67;98282.33;1630929;87;21571;-70
2022/06/21 05:29:18;;;;;;;4.50;2.85;;;;;;;24.82;42.66;98275.91;1639404;87;21091;-70
2022/06/21 05:31:47;;;;;;;9.98;3.12;;;;;;;24.90;42.69;98270.70;1639576;86;21066;-71
2022/06/21 05:34:21;;;;;;;4.85;3.27;;;;;;;24.98;42.64;98276.48;1665189;86;21110;-70
2022/06/21 05:37:00;;;;;;;4.92;3.65;;;;;;;25.03;42.63;98266.52;1638239;86;21077;-72
2022/06/21 05:39:37;;;;;;;10.18;3.25;;;;;;;25.10;42.58;98271.48;1640331;87;20970;-71
2022/06/21 05:42:04;;;;;;;5.33;3.30;;;;;;;25.17;42.50;98269.38;1644388;86;21579;-69
2022/06/21 05:44:53;;;;;;;12.55;3.35;;;;;;;25.22;42.42;98268.24;1617704;87;21126;-72
2022/06/21 05:47:27;;;;;;;5.22;3.08;;;;;;;25.27;42.43;98254.92;1639622;86;21040;-70
2022/06/21 05:49:57;;;;;;;3.10;2.80;;;;;;;25.32;42.45;98255.94;1625572;87;21277;-70
2022/06/21 05:52:28;;;;;;;11.33;4.12;;;;;;;25.38;42.27;98247.51;1649146;86;21584;-70
2022/06/21 05:55:18;;;;;;;9.28;4.03;;;;;;;25.43;42.34;98251.86;1652433;86;20955;-69
2022/06/21 05:57:52;;;;;;;5.15;3.30;;;;;;;25.49;42.49;98244.83;1648869;86;21088;-69
2022/06/21 06:00:49;;;;;;;5.53;3.05;;;;;;;25.55;42.33;98244.72;1642018;86;21512;-71
2022/06/21 06:03:37;;;;;;;6.17;3.80;;;;;;;25.58;42.45;98243.94;1665869;86;21840;-71
2022/06/21 06:06:05;;;;;;;10.15;4.70;;;;;;;25.65;42.25;98245.37;1639817;87;20986;-70
2022/06/21 06:08:37;;;;;;;10.58;4.35;;;;;;;25.69;42.32;98239.28;1655975;86;21136;-71
2022/06/21 06:11:07;;;;;;;13.62;3.67;;;;;;;25.74;42.38;98235.38;1658654;86;21068;-71
2022/06/21 06:13:38;;;;;;;7.50;3.22;;;;;;;25.79;42.34;98227.54;1644442;86;21105;-70
2022/06/21 06:16:11;;;;;;;4.90;3.47;;;;;;;25.86;42.48;98230.90;1645052;86;21094;-70
2022/06/21 06:18:49;;;;;;;5.22;3.70;;;;;;;25.91;42.29;98224.44;1666655;84;21075;-70
2022/06/21 06:21:30;;;;;;;4.03;3.35;;;;;;;25.98;42.26;98237.46;1644408;86;20959;-69
2022/06/21 06:24:02;;;;;;;5.10;3.52;;;;;;;26.04;42.22;98238.06;1638765;87;21441;-70
2022/06/21 06:26:33;;;;;;;5.00;3.85;;;;;;;26.13;42.20;98225.91;1640667;87;20967;-71
2022/06/21 06:29:14;;;;;;;4.75;3.67;;;;;;;26.19;42.02;98222.37;1635078;86;21520;-68
2022/06/21 06:31:46;;;;;;;4.45;3.52;;;;;;;26.25;42.14;98220.05;1630719;87;20999;-69
2022/06/21 06:34:16;;;;;;;11.65;3.65;;;;;;;26.32;42.08;98216.75;1643192;87;20960;-71
2022/06/21 06:36:53;;;;;;;6.62;4.30;;;;;;;26.40;41.99;98216.95;1642398;87;21030;-70
2022/06/21 06:39:32;;;;;;;5.00;3.70;;;;;;;26.51;41.85;98233.53;1636782;86;21469;-70
2022/06/21 06:42:17;;;;;;;10.35;3.87;;;;;;;26.57;41.66;98230.56;1641457;87;21247;-72
2022/06/21 06:44:53;;;;;;;5.45;3.62;;;;;;;26.66;41.58;98223.31;1639884;87;20939;-70
2022/06/21 06:47:38;;;;;;;5.90;3.15;;;;;;;26.74;41.43;98224.89;1626476;86;21045;-70
2022/06/21 06:50:25;;;;;;;4.53;2.92;;;;;;;26.84;41.42;98222.73;1657324;86;21005;-71
2022/06/21 06:53:09;;;;;;;14.68;3.85;;;;;;;26.95;41.47;98219.42;1629648;87;21032;-70
2022/06/21 06:55:47;;;;;;;4.87;3.45;;;;;;;27.03;41.75;98230.66;1644738;87;21158;-71
2022/06/21 06:58:50;;;;;;;4.65;3.58;;;;;;;27.11;41.69;98228.08;1662886;86;21525;-71
2022/06/21 07:01:24;;;;;;;13.93;3.70;;;;;;;27.15;41.58;98228.86;1629334;87;21033;-70
2022/06/21 07:03:55;;;;;;;5.08;3.58;;;;;;;27.14;41.70;98220.41;1634455;86;21016;-69
2022/06/21 07:06:42;;;;;;;12.93;4.22;;;;;;;27.16;41.96;98226.30;1628523;85;21086;-69
2022/06/21 07:09:45;;;;;;;6.37;3.65;;;;;;;27.18;42.07;98214.88;1682655;84;20948;-70
2022/06/21 07:12:25;;;;;;;8.15;4.45;;;;;;;27.19;42.21;98221.39;1681780;83;21016;-70
2022/06/21 07:14:52;;;;;;;5.65;4.45;;;;;;;27.23;42.16;98208.37;1666815;86;21537;-71
2022/06/21 07:17:43;;;;;;;6.58;4.72;;;;;;;27.28;42.24;98207.97;1642688;86;21706;-69
2022/06/21 07:20:23;;;;;;;3.98;3.50;;;;;;;27.33;42.26;98210.33;1648174;87;21554;-71
2022/06/21 07:22:55;;;;;;;10.93;4.20;;;;;;;27.41;42.35;98217.20;1645606;86;21256;-72
2022/06/21 07:25:36;;;;;;;5.33;4.45;;;;;;;27.43;42.37;98215.64;1641275;86;21045;-70
2022/06/21 07:28:14;;;;;;;5.37;4.53;;;;;;;27.47;42.51;98195.70;1629345;86;21076;-71
2022/06/21 07:30:43;;;;;;;9.35;4.15;;;;;;;27.52;42.60;98204.20;1648521;85;20967;-70
2022/06/21 07:33:33;;;;;;;7.78;3.98;;;;;;;27.58;42.86;98209.48;1682398;84;21277;-71
2022/06/21 07:36:12;;;;;;;5.62;4.10;;;;;;;27.61;42.99;98208.71;1656448;86;22274;-70
2022/06/21 07:38:50;;;;;;;5.15;4.70;;;;;;;27.66;43.04;98204.16;1622885;87;21013;-72
2022/06/21 07:41:25;;;;;;;4.95;4.42;;;;;;;27.71;43.07;98200.98;1659614;86;20986;-73
2022/06/21 07:43:55;;;;;;;7.05;4.72;;;;;;;27.74;43.08;98205.11;1639308;86;20999;-75
2022/06/21 07:46:31;;;;;;;6.83;4.30;;;;;;;27.78;43.00;98204.30;1607341;88;21131;-75
2022/06/21 07:49:09;;;;;;;5.35;4.50;;;;;;;27.80;43.19;98208.26;1641878;85;21149;-76
2022/06/21 07:51:40;;;;;;;6.72;4.30;;;;;;;27.85;43.29;98211.20;1640764;87;21172;-78
2022/06/21 07:54:24;;;;;;;4.50;4.05;;;;;;;27.88;43.42;98209.00;1640511;87;20908;-74
2022/06/21 07:56:59;;;;;;;7.80;4.67;;;;;;;27.90;43.42;98206.64;1655014;86;21057;-76
2022/06/21 07:59:43;;;;;;;5.80;5.08;;;;;;;27.93;43.53;98209.97;1644631;86;21078;-75
2022/06/21 08:08:20;;;;;;;4.97;3.92;;;;;;;28.08;44.49;98205.96;1667379;86;21095;-74
2022/06/21 08:10:59;;;;;;;6.80;4.30;;;;;;;28.14;44.29;98207.95;1645305;87;21010;-75
2022/06/21 08:13:26;;;;;;;10.05;4.75;;;;;;;28.19;44.26;98198.44;1666121;86;21496;-75
2022/06/21 08:16:07;;;;;;;10.75;5.28;;;;;;;28.23;44.48;98206.71;1619405;87;21124;-75
2022/06/21 08:18:48;;;;;;;7.58;5.10;;;;;;;28.25;44.60;98200.20;1635632;86;21055;-76
2022/06/21 08:21:20;;;;;;;6.12;4.65;;;;;;;28.29;44.87;98211.43;1590407;87;21094;-79
2022/06/21 08:24:01;;;;;;;9.15;4.00;;;;;;;28.38;44.77;98196.55;1661549;86;21079;-75
2022/06/21 08:26:36;;;;;;;7.15;4.60;;;;;;;28.43;44.32;98202.26;1644350;87;21103;-74
2022/06/21 08:29:17;;;;;;;14.63;5.35;;;;;;;28.43;44.34;98190.59;1650538;85;21071;-74
2022/06/21 08:31:50;;;;;;;11.65;5.50;;;;;;;28.49;44.39;98182.66;1642116;87;21026;-75
2022/06/21 08:34:36;;;;;;;7.33;5.17;;;;;;;28.58;44.20;98185.77;1637518;87;20982;-74
2022/06/21 08:37:12;;;;;;;12.07;5.83;;;;;;;28.63;44.10;98187.47;1639531;87;21006;-77
2022/06/21 08:39:56;;;;;;;8.68;5.17;;;;;;;28.66;44.14;98183.72;1632768;87;21038;-75
2022/06/21 08:42:47;;;;;;;9.58;6.65;;;;;;;28.67;44.59;98183.91;1631133;87;21050;-75
2022/06/21 08:45:40;;;;;;;12.88;5.10;;;;;;;28.71;44.32;98186.05;1625297;87;22016;-79
2022/06/21 08:48:34;;;;;;;;;;;;;;;28.79;43.83;98207.75;1639991;87;21535;-78
2022/06/21 08:51:44;;;;;;;9.75;5.35;;;;;;;28.81;43.77;98192.92;1630318;87;20157;-73
2022/06/21 08:54:25;;;;;;;13.53;7.00;;;;;;;28.81;44.12;98204.59;1635300;87;21043;-74
2022/06/21 08:57:03;;;;;;;8.70;5.60;;;;;;;28.88;44.08;98174.07;1627022;87;21144;-73
2022/06/21 08:59:51;;;;;;;10.63;7.50;;;;;;;28.95;43.84;98192.81;1625775;87;20963;-75
2022/06/21 09:02:56;;;;;;;10.58;5.62;;;;;;;29.01;43.37;98181.49;1637086;87;21543;-74
2022/06/21 09:06:06;;;;;;;11.80;5.17;;;;;;;29.05;43.35;98174.53;1628905;87;21034;-79
2022/06/21 09:08:50;;;;;;;8.53;5.17;;;;;;;29.12;42.36;98182.75;1639967;87;20995;-72
2022/06/21 09:11:28;;;;;;;9.23;5.08;;;;;;;29.18;42.07;98191.41;1637609;87;21145;-74
2022/06/21 09:14:07;;;;;;;7.37;5.25;;;;;;;29.21;42.23;98178.91;1636328;87;21532;-73
2022/06/21 09:16:58;;;;;;;7.97;5.85;;;;;;;29.23;41.90;98170.20;1627043;86;21106;-76
2022/06/21 09:19:36;;;;;;;10.18;5.28;;;;;;;29.27;41.73;98170.95;1648436;86;21056;-77
2022/06/21 09:22:33;;;;;;;8.75;6.90;;;;;;;29.28;41.79;98158.08;1632206;87;21177;-76
2022/06/21 09:25:21;;;;;;;15.30;6.50;;;;;;;29.40;42.08;98149.88;1621235;87;21260;-78
2022/06/21 09:27:50;;;;;;;8.95;5.47;;;;;;;29.53;42.35;98159.83;1613531;88;21523;-76
2022/06/21 09:30:29;;;;;;;10.30;5.92;;;;;;;29.61;42.24;98157.15;1631424;87;21076;-75
2022/06/21 09:33:22;;;;;;;11.60;6.78;;;;;;;29.66;41.96;98155.31;1619883;85;21109;-75
2022/06/21 09:35:57;;;;;;;12.60;6.85;;;;;;;29.69;41.75;98151.73;1607605;88;21118;-74
2022/06/21 09:39:05;;;;;;;6.87;5.67;;;;;;;29.76;41.91;98145.48;1605277;87;21194;-75
2022/06/21 09:41:37;;;;;;;15.48;6.70;;;;;;;29.86;41.79;98145.95;1612208;89;21020;-73
2022/06/21 09:44:22;;;;;;;10.95;6.20;;;;;;;29.95;41.90;98144.08;1613944;87;21047;-72
2022/06/21 09:47:04;;;;;;;12.85;7.53;;;;;;;29.97;41.84;98145.06;1630312;87;21032;-72
2022/06/21 09:49:40;;;;;;;10.48;6.08;;;;;;;29.94;41.88;98136.95;1613640;88;21024;-77
2022/06/21 09:52:30;;;;;;;14.90;5.62;;;;;;;29.92;42.01;98130.27;1594491;88;21223;-79
2022/06/21 09:55:17;;;;;;;13.22;6.65;;;;;;;29.86;41.91;98126.55;1616588;88;21012;-72
2022/06/21 09:58:12;;;;;;;11.60;6.55;;;;;;;29.84;42.09;98119.83;1615839;88;21139;-81
2022/06/21 10:00:54;;;;;;;8.70;5.70;;;;;;;29.83;42.16;98121.81;1614703;87;21127;-77
2022/06/21 10:03:43;;;;;;;7.97;5.42;;;;;;;29.81;42.22;98116.52;1613570;87;21827;-78
2022/06/21 10:06:15;;;;;;;9.70;5.67;;;;;;;29.79;42.18;98112.77;1638814;86;21108;-79
2022/06/21 10:09:06;;;;;;;6.47;5.42;;;;;;;29.77;42.21;98109.64;1604332;89;21572;-75
2022/06/21 10:11:54;;;;;;;11.38;6.62;;;;;;;29.73;42.64;98112.28;1618005;87;33653;-74
2022/06/21 10:14:45;;;;;;;7.83;5.65;;;;;;;29.62;43.05;98095.78;1613019;87;21094;-73
2022/06/21 10:17:18;;;;;;;9.58;5.90;;;;;;;29.54;43.22;98094.31;1610499;88;21174;-73
2022/06/21 10:20:21;;;;;;;7.72;5.67;;;;;;;29.46;43.59;98104.67;1627030;87;21122;-73
2022/06/21 10:23:09;;;;;;;16.17;5.80;;;;;;;29.45;43.59;98095.38;1615601;88;21055;-73
2022/06/21 10:25:51;;;;;;;6.55;5.12;;;;;;;29.44;43.38;98094.63;1605396;89;21087;-73
2022/06/21 10:28:55;;;;;;;8.15;4.03;;;;;;;29.48;43.31;98092.40;1615534;88;21006;-74
2022/06/21 10:32:01;;;;;;;15.75;4.40;;;;;;;29.56;43.28;98127.13;1592429;88;21103;-74
2022/06/21 10:34:49;;;;;;;10.25;3.70;;;;;;;29.34;44.04;98151.52;1658703;84;21508;-75
2022/06/21 10:37:40;;;;;;;13.30;4.62;;;;;;;28.60;45.70;98194.42;1634846;87;21039;-73
2022/06/21 10:40:28;;;;;;;10.60;5.25;;;;;;;27.85;47.63;98197.38;1629253;86;21108;-74
2022/06/21 10:43:35;;;;;;;20.12;5.33;;;;;;;27.12;49.65;98192.98;1640671;87;21007;-74
2022/06/21 10:46:34;;;;;;;7.03;3.75;;;;;;;26.39;52.65;98187.80;1601786;87;21067;-73
2022/06/21 10:49:31;;;;;;;10.78;3.90;;;;;;;25.59;56.68;98183.56;1624225;87;22010;-71
2022/06/21 10:52:32;;;;;;;10.32;6.45;;;;;;;24.89;62.19;98172.88;1650604;86;21027;-73
2022/06/21 10:55:10;;;;;;;5.72;4.53;;;;;;;24.11;67.26;98234.69;1651531;84;21079;-71
2022/06/21 10:58:12;;;;;;;7.90;4.45;;;;;;;23.39;70.51;98206.65;1619248;87;21598;-72
2022/06/21 11:01:21;;;;;;;8.23;5.55;;;;;;;22.96;72.29;98184.65;1640880;86;21002;-71
2022/06/21 11:04:19;;;;;;;9.10;5.17;;;;;;;22.65;74.88;98193.09;1636434;87;21571;-76
2022/06/21 11:07:06;;;;;;;12.50;5.75;;;;;;;22.40;76.93;98207.15;1612514;88;20973;-75
2022/06/21 11:09:50;;;;;;;8.70;5.37;;;;;;;22.23;78.04;98204.09;1666930;86;21035;-77
2022/06/21 11:12:56;;;;;;;10.58;4.95;;;;;;;22.12;79.44;98202.51;1666873;86;20944;-73
2022/06/21 11:15:37;;;;;;;9.03;5.72;;;;;;;22.02;80.92;98203.09;1645347;87;21128;-78
2022/06/21 11:18:28;;;;;;;8.00;5.70;;;;;;;21.97;82.18;98208.28;1664214;86;21716;-75
2022/06/21 11:21:19;;;;;;;9.68;6.15;;;;;;;21.88;83.62;98195.36;1635817;86;21018;-82
2022/06/21 11:24:06;;;;;;;7.92;6.20;;;;;;;21.79;85.31;98194.78;1602696;89;21012;-80
2022/06/21 11:27:13;;;;;;;17.02;7.42;;;;;;;21.74;85.96;98206.81;1648535;86;21061;-78
2022/06/21 11:30:02;;;;;;;12.25;7.47;;;;;;;21.71;87.45;98200.70;1634753;86;21103;-75
2022/06/21 11:32:56;;;;;;;9.80;8.85;;;;;;;21.72;88.83;98217.92;1667042;86;21344;-75
2022/06/21 11:35:43;;;;;;;10.45;9.28;;;;;;;21.68;89.61;98180.88;1663865;86;21506;-73
2022/06/21 11:38:47;;;;;;;12.63;8.45;;;;;;;21.68;90.71;98206.08;1648878;85;20975;-75
2022/06/21 11:42:05;;;;;;;12.13;8.18;;;;;;;21.68;91.40;98238.34;1694939;84;21009;-80
2022/06/21 11:44:54;;;;;;;11.05;8.60;;;;;;;21.71;90.74;98224.54;1621455;86;21520;-78
2022/06/21 11:47:49;;;;;;;13.78;10.65;;;;;;;21.77;90.37;98223.69;1620980;87;21502;-78
2022/06/21 11:50:25;;;;;;;10.05;9.03;;;;;;;21.68;90.59;98223.87;1663286;86;21028;-75
2022/06/21 11:53:31;;;;;;;12.53;10.35;;;;;;;21.70;89.24;98264.79;1645439;87;21031;-74
2022/06/21 11:56:20;;;;;;;10.72;9.03;;;;;;;21.75;89.23;98254.94;1658532;86;21095;-75
2022/06/21 11:59:06;;;;;;;11.20;9.30;;;;;;;21.77;89.64;98266.11;1618686;88;21582;-75
2022/06/21 12:01:48;;;;;;;15.90;9.43;;;;;;;21.77;89.42;98285.27;1648793;86;21410;-71
2022/06/21 12:04:54;;;;;;;10.05;9.13;;;;;;;21.77;89.73;98297.00;1643268;86;21551;-72
2022/06/21 12:07:41;;;;;;;13.08;8.45;;;;;;;21.73;89.13;98321.54;1658812;85;21064;-72
2022/06/21 12:10:20;;;;;;;5.55;5.05;;;;;;;21.70;89.78;98366.05;1657075;86;21225;-79
2022/06/21 12:13:23;;;;;;;4.00;3.70;;;;;;;21.37;81.83;98386.72;1657089;86;21068;-78
2022/06/21 12:16:08;;;;;;;11.43;4.60;;;;;;;20.87;83.02;98402.56;1662717;85;21159;-77
2022/06/21 12:18:35;;;;;;;7.75;2.77;;;;;;;20.41;85.82;98446.91;1637052;86;21527;-75
2022/06/21 12:21:15;;;;;;;3.20;2.65;;;;;;;20.20;89.50;98379.32;1629020;87;21094;-84
2022/06/21 12:23:50;;;;;;;5.28;3.15;;;;;;;19.93;89.81;98385.75;1640304;86;21510;-71
2022/06/21 12:26:24;;;;;;;7.17;1.87;;;;;;;19.59;92.03;98387.02;1639860;86;21035;-77
2022/06/21 12:28:51;;;;;;;;;;;;;;;19.26;94.14;98371.28;1642378;86;21819;-76
2022/06/21 12:31:29;;;;;;;2.60;1.42;;;;;;;18.98;95.23;98387.47;1628811;87;20476;-79
2022/06/21 12:34:12;;;;;;;2.40;1.50;;;;;;;18.73;96.20;98389.31;1656561;85;21053;-89
2022/06/21 12:37:01;;;;;;;4.05;1.37;;;;;;;18.37;95.77;98397.27;1640697;87;21106;-90
2022/06/21 12:39:37;;;;;;;1.30;1.20;;;;;;;18.01;95.66;98440.03;1648239;86;21048;-83
2022/06/21 12:42:34;;;;;;;1.20;1.10;;;;;;;17.71;96.36;98384.83;1640013;87;21928;-87